createdAt,value
2023-03-25T00:01:32.936Z,96025.75
2023-03-25T00:06:56.964Z,96027.53
2023-03-25T00:12:19.583Z,96023.94
2023-03-25T00:17:40.669Z,96020.81
2023-03-25T00:23:01.385Z,96013.94
2023-03-25T00:28:22.231Z,96017.19
2023-03-25T00:33:42.954Z,96008.09
2023-03-25T00:39:08.441Z,96013.28
2023-03-25T00:44:30.062Z,96001.72
2023-03-25T00:49:51.781Z,96007.06
2023-03-25T00:55:12.670Z,96007.56
2023-03-25T01:00:33.372Z,96010.97
2023-03-25T01:05:56.605Z,96014.22
2023-03-25T01:11:23.670Z,96010.94
2023-03-25T01:16:45.542Z,96005.44
2023-03-25T01:22:06.451Z,96012.44
2023-03-25T01:27:27.097Z,96010.16
2023-03-25T01:32:48.274Z,96005.94
2023-03-25T01:38:09.319Z,96001.69
2023-03-25T01:43:31.811Z,95999.53
2023-03-25T01:48:53.937Z,95994.16
2023-03-25T01:54:18.295Z,95994.34
2023-03-25T01:59:40.010Z,95988.63
2023-03-25T02:05:10.873Z,95982.75
2023-03-25T02:10:33.018Z,95976.00
2023-03-25T02:16:29.303Z,95982.44
2023-03-25T02:22:11.776Z,95977.03
2023-03-25T02:27:47.211Z,95977.19
2023-03-25T02:33:33.064Z,95965.16
2023-03-25T02:39:10.473Z,95965.63
2023-03-25T02:44:40.487Z,95974.72
2023-03-25T02:50:14.005Z,95980.22
2023-03-25T02:55:36.007Z,95961.59
2023-03-25T03:01:00.538Z,95957.84
2023-03-25T03:06:22.964Z,95941.91
2023-03-25T03:11:59.626Z,95948.56
2023-03-25T03:17:44.065Z,95936.22
2023-03-25T03:23:24.294Z,95935.00
2023-03-25T03:28:54.373Z,95935.94
2023-03-25T03:34:50.054Z,95943.56
2023-03-25T03:40:16.582Z,95946.47
2023-03-25T03:45:43.196Z,95946.97
2023-03-25T03:51:14.270Z,95957.44
2023-03-25T03:56:41.390Z,95959.88
2023-03-25T04:02:08.440Z,95971.72
2023-03-25T04:07:54.811Z,95966.22
2023-03-25T04:13:17.480Z,95974.53
2023-03-25T04:18:39.542Z,95971.72
2023-03-25T04:24:01.748Z,95964.22
2023-03-25T04:29:25.647Z,95958.03
2023-03-25T04:34:47.059Z,95958.41
2023-03-25T04:40:09.375Z,95957.84
2023-03-25T04:45:30.736Z,95961.16
2023-03-25T04:50:51.897Z,95963.25
2023-03-25T04:56:16.919Z,95966.81
2023-03-25T05:01:42.273Z,95968.50
2023-03-25T05:07:03.751Z,95963.00
2023-03-25T05:12:24.401Z,95977.53
2023-03-25T05:17:45.657Z,95986.22
2023-03-25T05:23:12.239Z,95992.31
2023-03-25T05:28:33.845Z,95993.59
2023-03-25T05:33:55.051Z,95998.31
2023-03-25T05:39:16.074Z,96009.53
2023-03-25T05:44:38.757Z,96008.00
2023-03-25T05:50:00.388Z,96007.09
2023-03-25T05:55:23.438Z,96010.50
2023-03-25T06:00:44.428Z,96009.75
2023-03-25T06:06:05.669Z,96022.34
2023-03-25T06:11:26.388Z,96025.91
2023-03-25T06:16:50.031Z,96020.19
2023-03-25T06:22:11.923Z,96014.53
2023-03-25T06:27:34.777Z,96019.66
2023-03-25T06:32:55.902Z,96028.34
2023-03-25T06:38:16.669Z,96038.31
2023-03-25T06:43:55.234Z,96027.97
2023-03-25T06:49:16.156Z,96037.03
2023-03-25T06:54:36.998Z,96026.22
2023-03-25T06:59:57.543Z,96040.38
2023-03-25T07:05:18.720Z,96028.16
2023-03-25T07:10:39.279Z,96041.66
2023-03-25T07:16:00.850Z,96049.94
2023-03-25T07:21:22.039Z,96033.47
2023-03-25T07:26:42.932Z,96031.59
2023-03-25T07:32:06.715Z,96045.69
2023-03-25T07:37:27.654Z,96036.53
2023-03-25T07:42:48.492Z,96036.25
2023-03-25T07:48:17.054Z,96038.63
2023-03-25T07:53:39.216Z,96045.06
2023-03-25T07:58:59.850Z,96057.16
2023-03-25T08:04:21.144Z,96066.09
2023-03-25T08:09:42.502Z,96069.75
2023-03-25T08:15:03.920Z,96065.03
2023-03-25T08:20:24.481Z,96054.63
2023-03-25T08:25:49.348Z,96068.44
2023-03-25T08:31:11.994Z,96060.81
2023-03-25T08:36:32.933Z,96048.97
2023-03-25T08:41:53.658Z,96043.28
2023-03-25T08:47:14.333Z,96033.66
2023-03-25T08:52:35.184Z,96036.91
2023-03-25T08:57:55.920Z,96060.59
2023-03-25T09:03:16.599Z,96072.50
2023-03-25T09:08:37.373Z,96078.69
2023-03-25T09:13:58.140Z,96076.22
2023-03-25T09:19:18.735Z,96073.38
2023-03-25T09:24:39.594Z,96073.84
2023-03-25T09:30:00.195Z,96080.75
2023-03-25T09:35:20.753Z,96100.44
2023-03-25T09:40:45.038Z,96076.84
2023-03-25T09:46:06.636Z,96079.00
2023-03-25T09:51:35.950Z,96090.00
2023-03-25T09:57:01.124Z,96071.00
2023-03-25T10:02:34.700Z,96066.72
2023-03-25T10:08:17.662Z,96063.56
2023-03-25T10:14:19.418Z,96052.66
2023-03-25T10:19:54.428Z,96056.34
2023-03-25T10:25:20.930Z,96045.06
2023-03-25T10:30:46.367Z,96044.03
2023-03-25T10:36:18.099Z,96052.16
2023-03-25T10:41:43.235Z,96057.97
2023-03-25T10:47:14.276Z,96049.66
2023-03-25T10:52:35.577Z,96044.16
2023-03-25T10:57:57.211Z,96033.56
2023-03-25T11:03:22.582Z,96034.72
2023-03-25T11:09:04.616Z,96034.41
2023-03-25T11:14:28.025Z,96020.59
2023-03-25T11:20:02.246Z,96016.03
2023-03-25T11:25:31.148Z,96002.06
2023-03-25T11:31:10.420Z,95977.47
2023-03-25T11:36:35.340Z,95976.97
2023-03-25T11:41:57.326Z,95982.03
2023-03-25T11:47:27.151Z,95988.03
2023-03-25T11:52:50.301Z,95986.56
2023-03-25T11:58:36.127Z,95972.06
2023-03-25T12:04:26.311Z,95967.19
2023-03-25T12:09:55.787Z,95970.78
2023-03-25T12:15:39.418Z,95963.94
2023-03-25T12:21:31.877Z,95972.41
2023-03-25T12:26:52.615Z,95957.25
2023-03-25T12:32:36.664Z,95930.63
2023-03-25T12:38:17.025Z,95929.47
2023-03-25T12:43:58.593Z,95933.09
2023-03-25T12:49:42.857Z,95916.94
2023-03-25T12:55:23.794Z,95921.66
2023-03-25T13:01:12.751Z,95902.66
2023-03-25T13:06:46.263Z,95882.16
2023-03-25T13:12:13.293Z,95890.09
2023-03-25T13:17:47.978Z,95886.59
2023-03-25T13:23:14.058Z,95889.84
2023-03-25T13:28:43.875Z,95891.28
2023-03-25T13:34:24.725Z,95867.34
2023-03-25T13:40:11.770Z,95877.47
2023-03-25T13:46:02.815Z,95873.16
2023-03-25T13:51:23.876Z,95857.44
2023-03-25T13:56:53.705Z,95869.00
2023-03-25T14:02:33.327Z,95878.47
2023-03-25T14:08:23.980Z,95872.94
2023-03-25T14:14:01.672Z,95855.63
2023-03-25T14:19:32.288Z,95866.56
2023-03-25T14:24:53.968Z,95871.72
2023-03-25T14:30:23.932Z,95882.56
2023-03-25T14:35:47.640Z,95875.63
2023-03-25T14:41:09.195Z,95909.16
2023-03-25T14:46:35.739Z,95963.63
2023-03-25T14:51:58.928Z,95974.81
2023-03-25T14:57:26.485Z,95987.53
2023-03-25T15:02:53.471Z,95994.28
2023-03-25T15:08:17.684Z,95999.84
2023-03-25T15:13:52.883Z,95994.09
2023-03-25T15:19:19.002Z,95978.16
2023-03-25T15:24:41.537Z,95964.47
2023-03-25T15:30:26.926Z,95963.88
2023-03-25T15:36:19.902Z,95956.91
2023-03-25T15:41:58.974Z,95963.00
2023-03-25T15:47:46.138Z,95963.34
2023-03-25T15:53:35.918Z,95971.31
2023-03-25T15:59:08.100Z,95974.88
2023-03-25T16:04:34.815Z,95972.78
2023-03-25T16:09:55.748Z,95984.81
2023-03-25T16:15:24.488Z,95997.59
2023-03-25T16:20:46.308Z,95997.66
2023-03-25T16:26:07.145Z,95998.50
2023-03-25T16:31:41.176Z,96010.31
2023-03-25T16:37:02.823Z,96016.97
2023-03-25T16:42:32.837Z,96019.06
2023-03-25T16:47:54.335Z,96012.47
2023-03-25T16:53:17.842Z,96020.03
2023-03-25T16:58:57.814Z,96017.88
2023-03-25T17:04:22.347Z,96017.81
2023-03-25T17:09:44.901Z,96024.44
2023-03-25T17:15:09.355Z,96016.31
2023-03-25T17:20:45.764Z,96020.25
2023-03-25T17:26:22.417Z,96023.97
2023-03-25T17:31:43.305Z,96011.28
2023-03-25T17:37:04.083Z,96023.25
2023-03-25T17:42:26.381Z,96026.41
2023-03-25T17:47:47.404Z,96034.56
2023-03-25T17:53:08.220Z,96025.97
2023-03-25T17:58:29.682Z,96047.19
2023-03-25T18:03:50.823Z,96047.47
2023-03-25T18:09:23.641Z,96050.81
2023-03-25T18:14:44.984Z,96068.22
2023-03-25T18:20:28.614Z,96060.53
2023-03-25T18:25:49.704Z,96061.16
2023-03-25T18:31:18.928Z,96063.44
2023-03-25T18:36:42.087Z,96061.28
2023-03-25T18:42:02.837Z,96055.16
2023-03-25T18:47:24.293Z,96058.59
2023-03-25T18:52:45.724Z,96056.44
2023-03-25T18:58:07.906Z,96055.75
2023-03-25T19:03:38.567Z,96057.94
2023-03-25T19:09:00.593Z,96065.88
2023-03-25T19:14:21.647Z,96068.06
2023-03-25T19:19:42.713Z,96060.28
2023-03-25T19:25:03.455Z,96068.78
2023-03-25T19:30:24.810Z,96075.09
2023-03-25T19:35:54.465Z,96077.41
2023-03-25T19:41:16.701Z,96064.81
2023-03-25T19:46:38.002Z,96082.28
2023-03-25T19:51:59.116Z,96069.16
2023-03-25T19:57:20.283Z,96071.22
2023-03-25T20:02:47.710Z,96068.75
2023-03-25T20:08:09.611Z,96074.63
2023-03-25T20:13:30.422Z,96063.56
2023-03-25T20:18:51.514Z,96059.47
2023-03-25T20:24:12.594Z,96057.34
2023-03-25T20:29:33.282Z,96068.34
2023-03-25T20:34:53.998Z,96075.09
2023-03-25T20:40:17.201Z,96071.53
2023-03-25T20:45:37.936Z,96077.78
2023-03-25T20:51:01.035Z,96072.75
2023-03-25T20:56:21.890Z,96076.22
2023-03-25T21:01:42.839Z,96065.13
2023-03-25T21:07:04.208Z,96062.94
2023-03-25T21:12:40.728Z,96064.03
2023-03-25T21:18:04.154Z,96067.28
2023-03-25T21:23:28.409Z,96059.25
2023-03-25T21:28:49.571Z,96065.94
2023-03-25T21:34:11.185Z,96059.00
2023-03-25T21:39:32.592Z,96056.41
2023-03-25T21:44:53.671Z,96049.16
2023-03-25T21:50:14.879Z,96057.91
2023-03-25T21:55:36.552Z,96057.78
2023-03-25T22:01:01.790Z,96057.91
2023-03-25T22:06:26.280Z,96048.63
2023-03-25T22:11:47.214Z,96044.41
2023-03-25T22:17:08.116Z,96030.59
2023-03-25T22:22:30.063Z,96020.22
2023-03-25T22:27:50.952Z,96021.84
2023-03-25T22:33:11.581Z,96012.56
2023-03-25T22:38:33.663Z,96009.72
2023-03-25T22:43:55.912Z,96013.81
2023-03-25T22:49:17.708Z,96010.81
2023-03-25T22:54:38.375Z,96009.19
2023-03-25T22:59:59.045Z,96022.16
2023-03-25T23:05:19.907Z,96006.03
2023-03-25T23:10:44.519Z,95997.44
2023-03-25T23:16:14.259Z,95999.09
2023-03-25T23:21:34.903Z,95992.94
2023-03-25T23:26:56.114Z,96010.16
2023-03-25T23:32:16.905Z,95998.25
2023-03-25T23:37:37.747Z,96005.91
2023-03-25T23:42:58.300Z,96005.75
2023-03-25T23:48:19.005Z,96018.28
2023-03-25T23:53:43.647Z,96022.53
2023-03-25T23:59:06.469Z,96025.97
